Connexion S'enregistrer

Connexion à votre compte

Identifiant
Mot de passe
Maintenir la connexion active sur ce site

Créer un compte

Pour valider ce formulaire, vous devez remplir tous les champs.
Nom
Identifiant
Mot de passe
Répétez le mot de passe
Adresse e-mail
Répétez l'adresse e-mail

Nous contacter

 Téléphone : +33 (0)4 79 54 41 81

Coordonnées détaillées et accès : cliquez ici

 
LFLB °C
    Ferienhaus Ostsee
[source: ADDS]
METAR
LFLB 170800Z AUTO 05002KT 2700 BR FEW012 BKN019 BKN039 00/00 Q1022 TEMPO 4000 -RA BKN009 OVC020 =
TAF AMD LFLB 170557Z 1705/1803 VRB05KT 9999 BKN040 TEMPO 1705/1714 4000 -RA BKN009 OVC020 TEMPO 1714/1724 34010KT
TAF
TAF AMD LFLB 170557Z 1705/1803 VRB05KT 9999 BKN040 TEMPO 1705/1714 4000 -RA BKN009 OVC020 TEMPO 1714/1724 34010KT =
SR / SS: 07:11 / 16:21 UTC (Lever/Coucher du soleil le 2021-01-17)
JSN Boot template designed by JoomlaShine.com